createdAt,value
2018-10-02T00:00:48.733Z,965.48
2018-10-02T00:01:48.730Z,965.53
2018-10-02T00:02:48.727Z,965.51
2018-10-02T00:03:48.728Z,965.53
2018-10-02T00:04:48.720Z,965.54
2018-10-02T00:05:48.715Z,965.56
2018-10-02T00:06:48.719Z,965.54
2018-10-02T00:07:48.712Z,965.55
2018-10-02T00:08:48.709Z,965.53
2018-10-02T00:09:48.705Z,965.58
2018-10-02T00:10:48.712Z,965.57
2018-10-02T00:11:48.746Z,965.59
2018-10-02T00:12:48.691Z,965.61
2018-10-02T00:13:48.686Z,965.60
2018-10-02T00:14:48.682Z,965.62
2018-10-02T00:15:48.680Z,965.62
2018-10-02T00:16:48.670Z,965.62
2018-10-02T00:17:48.672Z,965.62
2018-10-02T00:18:48.664Z,965.60
2018-10-02T00:19:48.663Z,965.56
2018-10-02T00:20:48.670Z,965.61
2018-10-02T00:21:48.679Z,965.58
2018-10-02T00:22:48.654Z,965.65
2018-10-02T00:23:48.651Z,965.60
2018-10-02T00:24:48.644Z,965.61
2018-10-02T00:25:48.641Z,965.61
2018-10-02T00:26:48.671Z,965.57
2018-10-02T00:27:48.630Z,965.54
2018-10-02T00:28:48.629Z,965.53
2018-10-02T00:29:48.627Z,965.52
2018-10-02T00:30:48.633Z,965.57
2018-10-02T00:31:48.669Z,965.56
2018-10-02T00:32:48.614Z,965.53
2018-10-02T00:33:48.617Z,965.55
2018-10-02T00:34:48.606Z,965.54
2018-10-02T00:35:48.603Z,965.50
2018-10-02T00:36:48.597Z,965.48
2018-10-02T00:37:48.595Z,965.48
2018-10-02T00:38:48.587Z,965.47
2018-10-02T00:39:48.596Z,965.47
2018-10-02T00:40:48.597Z,965.47
2018-10-02T00:41:48.605Z,965.44
2018-10-02T00:42:48.582Z,965.47
2018-10-02T00:43:48.570Z,965.47
2018-10-02T00:44:48.580Z,965.44
2018-10-02T00:45:48.563Z,965.44
2018-10-02T00:46:48.557Z,965.46
2018-10-02T00:47:48.557Z,965.47
2018-10-02T00:48:48.548Z,965.52
2018-10-02T00:49:48.546Z,965.48
2018-10-02T00:50:48.568Z,965.51
2018-10-02T00:51:48.540Z,965.55
2018-10-02T00:52:48.533Z,965.53
2018-10-02T00:53:48.533Z,965.51
2018-10-02T00:54:48.528Z,965.55
2018-10-02T00:55:48.523Z,965.55
2018-10-02T00:56:48.525Z,965.51
2018-10-02T00:57:48.513Z,965.50
2018-10-02T00:58:48.520Z,965.50
2018-10-02T00:59:48.511Z,965.53
2018-10-02T01:00:48.508Z,965.52
2018-10-02T01:01:48.496Z,965.54
2018-10-02T01:02:48.503Z,965.50
2018-10-02T01:03:48.503Z,965.48
2018-10-02T01:04:48.487Z,965.46
2018-10-02T01:05:48.487Z,965.49
2018-10-02T01:06:48.486Z,965.46
2018-10-02T01:07:48.474Z,965.44
2018-10-02T01:08:48.471Z,965.54
2018-10-02T01:09:48.474Z,965.49
2018-10-02T01:10:48.458Z,965.45
2018-10-02T01:11:48.459Z,965.47
2018-10-02T01:12:48.474Z,965.45
2018-10-02T01:13:48.451Z,965.47
2018-10-02T01:14:48.461Z,965.49
2018-10-02T01:15:48.443Z,965.45
2018-10-02T01:16:48.439Z,965.47
2018-10-02T01:17:48.433Z,965.44
2018-10-02T01:18:48.430Z,965.45
2018-10-02T01:19:48.459Z,965.45
2018-10-02T01:20:48.425Z,965.47
2018-10-02T01:21:48.428Z,965.47
2018-10-02T01:22:48.418Z,965.50
2018-10-02T01:23:48.411Z,965.46
2018-10-02T01:24:48.404Z,965.50
2018-10-02T01:25:48.400Z,965.47
2018-10-02T01:26:48.394Z,965.45
2018-10-02T01:27:48.400Z,965.47
2018-10-02T01:28:48.395Z,965.46
2018-10-02T01:29:48.388Z,965.42
2018-10-02T01:30:48.381Z,965.45
2018-10-02T01:31:48.376Z,965.49
2018-10-02T01:32:48.374Z,965.46
2018-10-02T01:33:48.373Z,965.48
2018-10-02T01:34:48.361Z,965.48
2018-10-02T01:35:48.361Z,965.52
2018-10-02T01:36:48.361Z,965.51
2018-10-02T01:37:48.349Z,965.53
2018-10-02T01:38:48.346Z,965.51
2018-10-02T01:39:48.345Z,965.55
2018-10-02T01:40:48.353Z,965.47
2018-10-02T01:41:48.338Z,965.50
2018-10-02T01:42:48.334Z,965.50
2018-10-02T01:43:48.330Z,965.49
2018-10-02T01:44:48.324Z,965.50
2018-10-02T01:45:48.322Z,965.46
2018-10-02T01:46:48.314Z,965.46
2018-10-02T01:47:48.313Z,965.47
2018-10-02T01:48:48.310Z,965.45
2018-10-02T01:49:48.303Z,965.44
2018-10-02T01:50:48.303Z,965.43
2018-10-02T01:51:48.296Z,965.49
2018-10-02T01:52:48.284Z,965.46
2018-10-02T01:53:48.286Z,965.49
2018-10-02T01:54:48.288Z,965.44
2018-10-02T01:55:48.276Z,965.45
2018-10-02T01:56:48.273Z,965.45
2018-10-02T01:57:48.267Z,965.38
2018-10-02T01:58:48.276Z,965.49
2018-10-02T01:59:48.263Z,965.43
2018-10-02T02:00:48.253Z,965.43
2018-10-02T02:01:48.252Z,965.43
2018-10-02T02:02:48.256Z,965.49
2018-10-02T02:03:48.262Z,965.47
2018-10-02T02:04:48.240Z,965.46
2018-10-02T02:05:48.240Z,965.44
2018-10-02T02:06:48.236Z,965.47
2018-10-02T02:07:48.223Z,965.42
2018-10-02T02:08:48.229Z,965.43
2018-10-02T02:09:48.212Z,965.41
2018-10-02T02:10:48.214Z,965.50
2018-10-02T02:11:48.212Z,965.48
2018-10-02T02:12:48.198Z,965.50
2018-10-02T02:13:48.198Z,965.53
2018-10-02T02:14:48.187Z,965.57
2018-10-02T02:15:48.183Z,965.64
2018-10-02T02:16:48.182Z,965.63
2018-10-02T02:17:48.172Z,965.67
2018-10-02T02:18:48.170Z,965.61
2018-10-02T02:19:48.162Z,965.57
2018-10-02T02:20:48.180Z,965.62
2018-10-02T02:21:48.163Z,965.58
2018-10-02T02:22:48.150Z,965.53
2018-10-02T02:23:48.152Z,965.57
2018-10-02T02:24:48.144Z,965.60
2018-10-02T02:25:48.134Z,965.61
2018-10-02T02:26:48.127Z,965.58
2018-10-02T02:27:48.128Z,965.59
2018-10-02T02:28:48.119Z,965.54
2018-10-02T02:29:48.131Z,965.59
2018-10-02T02:30:48.113Z,965.55
2018-10-02T02:31:48.104Z,965.59
2018-10-02T02:32:48.110Z,965.56
2018-10-02T02:33:48.113Z,965.65
2018-10-02T02:34:48.092Z,965.58
2018-10-02T02:35:48.083Z,965.61
2018-10-02T02:36:48.098Z,965.65
2018-10-02T02:37:48.101Z,965.59
2018-10-02T02:38:48.095Z,965.56
2018-10-02T02:39:48.062Z,965.62
2018-10-02T02:40:48.060Z,965.61
2018-10-02T02:41:48.066Z,965.62
2018-10-02T02:42:48.048Z,965.61
2018-10-02T02:43:48.048Z,965.63
2018-10-02T02:44:48.053Z,965.66
2018-10-02T02:45:48.035Z,965.67
2018-10-02T02:46:48.029Z,965.71
2018-10-02T02:47:48.021Z,965.68
2018-10-02T02:48:48.030Z,965.72
2018-10-02T02:49:48.010Z,965.71
2018-10-02T02:50:48.005Z,965.68
2018-10-02T02:51:48.003Z,965.70
2018-10-02T02:52:47.996Z,965.65
2018-10-02T02:53:47.992Z,965.64
2018-10-02T02:54:47.988Z,965.67
2018-10-02T02:55:48.013Z,965.70
2018-10-02T02:56:47.976Z,965.70
2018-10-02T02:57:47.974Z,965.70
2018-10-02T02:58:47.983Z,965.66
2018-10-02T02:59:47.962Z,965.64
2018-10-02T03:00:47.957Z,965.61
2018-10-02T03:01:47.989Z,965.62
2018-10-02T03:02:47.946Z,965.63
2018-10-02T03:03:47.970Z,965.66
2018-10-02T03:04:47.944Z,965.68
2018-10-02T03:05:47.958Z,965.63
2018-10-02T03:06:47.952Z,965.63
2018-10-02T03:07:47.941Z,965.64
2018-10-02T03:08:47.916Z,965.64
2018-10-02T03:09:47.925Z,965.67
2018-10-02T03:10:47.904Z,965.66
2018-10-02T03:11:47.941Z,965.64
2018-10-02T03:12:47.904Z,965.60
2018-10-02T03:13:47.894Z,965.61
2018-10-02T03:14:47.892Z,965.61
2018-10-02T03:15:47.884Z,965.69
2018-10-02T03:16:47.892Z,965.66
2018-10-02T03:17:47.873Z,965.65
2018-10-02T03:18:47.890Z,965.67
2018-10-02T03:19:47.862Z,965.70
2018-10-02T03:20:47.857Z,965.66
2018-10-02T03:21:47.889Z,965.68
2018-10-02T03:22:47.855Z,965.65
2018-10-02T03:23:47.849Z,965.66
2018-10-02T03:24:47.834Z,965.66
2018-10-02T03:25:47.848Z,965.64
2018-10-02T03:26:47.832Z,965.65
2018-10-02T03:27:47.839Z,965.63
2018-10-02T03:28:47.825Z,965.66
2018-10-02T03:29:47.834Z,965.61
2018-10-02T03:30:47.833Z,965.69
2018-10-02T03:31:47.841Z,965.67
2018-10-02T03:32:47.825Z,965.73
2018-10-02T03:33:47.880Z,965.75
2018-10-02T03:34:47.823Z,965.70
2018-10-02T03:35:47.809Z,965.70
2018-10-02T03:36:47.774Z,965.75
2018-10-02T03:37:47.817Z,965.72
2018-10-02T03:38:47.779Z,965.69
2018-10-02T03:39:47.775Z,965.68
2018-10-02T03:40:47.778Z,965.65
2018-10-02T03:41:47.803Z,965.61
2018-10-02T03:42:47.747Z,965.62
2018-10-02T03:43:47.772Z,965.58
2018-10-02T03:44:47.793Z,965.59
2018-10-02T03:45:47.807Z,965.57
2018-10-02T03:46:47.798Z,965.52
2018-10-02T03:47:47.721Z,965.53
2018-10-02T03:48:47.803Z,965.53
2018-10-02T03:49:47.738Z,965.48
2018-10-02T03:50:47.782Z,965.49
2018-10-02T03:51:47.746Z,965.42
2018-10-02T03:52:47.737Z,965.46
2018-10-02T03:53:47.736Z,965.51
2018-10-02T03:54:47.750Z,965.46
2018-10-02T03:55:47.765Z,965.47
2018-10-02T03:56:47.751Z,965.48
2018-10-02T03:57:47.671Z,965.52
2018-10-02T03:58:47.674Z,965.54
2018-10-02T03:59:47.659Z,965.50
2018-10-02T04:00:47.659Z,965.50
2018-10-02T04:01:47.649Z,965.49
2018-10-02T04:02:47.651Z,965.46
2018-10-02T04:03:47.657Z,965.50
2018-10-02T04:04:47.669Z,965.51
2018-10-02T04:05:47.631Z,965.48
2018-10-02T04:06:47.638Z,965.48
2018-10-02T04:07:47.624Z,965.50
2018-10-02T04:08:47.619Z,965.44
2018-10-02T04:09:47.616Z,965.44
2018-10-02T04:10:47.609Z,965.49
2018-10-02T04:11:47.626Z,965.55
2018-10-02T04:12:47.598Z,965.56
2018-10-02T04:13:47.594Z,965.58
2018-10-02T04:14:47.591Z,965.55
2018-10-02T04:15:47.579Z,965.61
2018-10-02T04:16:47.573Z,965.59
2018-10-02T04:17:47.571Z,965.55
2018-10-02T04:18:47.595Z,965.59
2018-10-02T04:19:47.575Z,965.62
2018-10-02T04:20:47.641Z,965.69
2018-10-02T04:21:47.550Z,965.64
2018-10-02T04:22:47.554Z,965.61
2018-10-02T04:23:47.540Z,965.57
2018-10-02T04:24:47.533Z,965.55
2018-10-02T04:25:47.540Z,965.54
2018-10-02T04:26:47.530Z,965.60
2018-10-02T04:27:47.581Z,965.52
2018-10-02T04:28:47.547Z,965.45
2018-10-02T04:29:47.516Z,965.43
2018-10-02T04:30:47.505Z,965.45
2018-10-02T04:31:47.506Z,965.44
2018-10-02T04:32:47.498Z,965.47
2018-10-02T04:33:47.526Z,965.50
2018-10-02T04:34:47.491Z,965.52
2018-10-02T04:35:47.501Z,965.54
2018-10-02T04:36:47.479Z,965.50
2018-10-02T04:37:47.472Z,965.49
2018-10-02T04:38:47.467Z,965.51
2018-10-02T04:39:47.496Z,965.50
2018-10-02T04:40:47.454Z,965.53
2018-10-02T04:41:47.451Z,965.49
2018-10-02T04:42:47.457Z,965.51
2018-10-02T04:43:47.476Z,965.45
2018-10-02T04:44:47.451Z,965.50
2018-10-02T04:45:49.239Z,965.54
2018-10-02T04:46:47.432Z,965.50
2018-10-02T04:47:47.441Z,965.51
2018-10-02T04:48:47.417Z,965.52
2018-10-02T04:49:47.418Z,965.46
2018-10-02T04:50:47.411Z,965.46
2018-10-02T04:51:47.405Z,965.43
2018-10-02T04:52:47.424Z,965.38
2018-10-02T04:53:47.405Z,965.41
2018-10-02T04:54:47.401Z,965.42
2018-10-02T04:55:47.546Z,965.44
2018-10-02T04:56:47.402Z,965.39
2018-10-02T04:57:47.371Z,965.44
2018-10-02T04:58:47.362Z,965.48
2018-10-02T04:59:47.362Z,965.51
2018-10-02T05:00:47.357Z,965.52
2018-10-02T05:01:47.375Z,965.51
2018-10-02T05:02:47.342Z,965.51
2018-10-02T05:03:47.344Z,965.50
2018-10-02T05:04:47.368Z,965.50
2018-10-02T05:05:47.329Z,965.54
2018-10-02T05:06:47.327Z,965.46
2018-10-02T05:07:47.332Z,965.52
2018-10-02T05:08:47.375Z,965.46
2018-10-02T05:09:47.326Z,965.45
2018-10-02T05:10:47.336Z,965.51
2018-10-02T05:11:47.303Z,965.52
2018-10-02T05:12:47.295Z,965.49
2018-10-02T05:13:47.286Z,965.52
2018-10-02T05:14:47.290Z,965.45
2018-10-02T05:15:47.277Z,965.47
2018-10-02T05:16:47.279Z,965.46
2018-10-02T05:17:47.270Z,965.42
2018-10-02T05:18:47.265Z,965.47
2018-10-02T05:19:47.271Z,965.48
2018-10-02T05:20:47.300Z,965.45
2018-10-02T05:21:47.247Z,965.44
2018-10-02T05:22:47.256Z,965.45
2018-10-02T05:23:47.303Z,965.46
2018-10-02T05:24:54.451Z,965.46
2018-10-02T05:26:40.159Z,965.50
2018-10-02T05:27:47.387Z,965.59
2018-10-02T05:29:33.007Z,965.52
2018-10-02T05:30:32.954Z,965.46
2018-10-02T05:32:26.379Z,965.55
2018-10-02T05:33:26.365Z,965.56
2018-10-02T05:35:19.377Z,965.63
2018-10-02T05:36:19.190Z,965.59
2018-10-02T05:38:12.097Z,965.67
2018-10-02T05:39:12.067Z,965.71
2018-10-02T05:41:04.943Z,965.72
2018-10-02T05:42:04.903Z,965.70
2018-10-02T05:43:57.809Z,965.63
2018-10-02T05:44:57.788Z,965.61
2018-10-02T05:46:50.682Z,965.54
2018-10-02T05:47:50.623Z,965.55
2018-10-02T05:48:50.616Z,965.59
2018-10-02T05:49:50.713Z,965.64
2018-10-02T05:50:50.574Z,965.65
2018-10-02T05:51:50.572Z,965.62
2018-10-02T05:52:50.559Z,965.66
2018-10-02T05:53:50.571Z,965.58
2018-10-02T05:54:50.550Z,965.51
2018-10-02T05:55:50.553Z,965.49
2018-10-02T05:56:50.560Z,965.44
2018-10-02T05:57:50.540Z,965.38
2018-10-02T05:58:50.533Z,965.31
2018-10-02T05:59:50.527Z,965.31
2018-10-02T06:00:50.521Z,965.28
2018-10-02T06:01:50.517Z,965.31
2018-10-02T06:02:50.509Z,965.37
2018-10-02T06:03:50.540Z,965.38
2018-10-02T06:04:50.523Z,965.40
2018-10-02T06:05:50.497Z,965.39
2018-10-02T06:06:50.497Z,965.37
2018-10-02T06:07:50.487Z,965.43
2018-10-02T06:08:50.522Z,965.41
2018-10-02T06:09:50.479Z,965.45
2018-10-02T06:10:50.473Z,965.49
2018-10-02T06:11:50.487Z,965.48
2018-10-02T06:12:50.734Z,965.50
2018-10-02T06:13:50.543Z,965.58
2018-10-02T06:14:50.487Z,965.56
2018-10-02T06:15:50.448Z,965.56
2018-10-02T06:16:50.496Z,965.58
2018-10-02T06:17:50.485Z,965.65
2018-10-02T06:18:50.528Z,965.63
2018-10-02T06:19:50.472Z,965.65
2018-10-02T06:20:50.443Z,965.62
2018-10-02T06:21:50.420Z,965.67
2018-10-02T06:22:50.416Z,965.66
2018-10-02T06:23:50.412Z,965.72
2018-10-02T06:24:50.531Z,965.70
2018-10-02T06:25:50.406Z,965.77
2018-10-02T06:26:50.402Z,965.71
2018-10-02T06:27:50.390Z,965.76
2018-10-02T06:28:50.390Z,965.78
2018-10-02T06:29:50.405Z,965.84
2018-10-02T06:30:50.378Z,965.75
2018-10-02T06:31:50.370Z,965.84
2018-10-02T06:32:50.475Z,965.80
2018-10-02T06:33:50.363Z,965.89
2018-10-02T06:34:50.391Z,965.85
2018-10-02T06:35:50.352Z,965.89
2018-10-02T06:36:50.403Z,965.79
2018-10-02T06:37:50.369Z,965.75
2018-10-02T06:38:50.401Z,965.78
2018-10-02T06:39:50.332Z,965.88
2018-10-02T06:40:50.329Z,965.82
2018-10-02T06:41:50.328Z,965.84
2018-10-02T06:42:50.319Z,965.78
2018-10-02T06:43:50.376Z,965.82
2018-10-02T06:44:50.340Z,965.77
2018-10-02T06:45:50.326Z,965.70
2018-10-02T06:46:51.170Z,965.72
2018-10-02T06:47:50.321Z,965.71
2018-10-02T06:48:50.370Z,965.73
2018-10-02T06:49:50.360Z,965.74
2018-10-02T06:50:50.360Z,965.73
2018-10-02T06:51:50.334Z,965.72
2018-10-02T06:52:50.704Z,965.77
2018-10-02T06:53:50.433Z,965.72
2018-10-02T06:54:50.445Z,965.70
2018-10-02T06:55:51.166Z,965.71
2018-10-02T06:56:50.348Z,965.70
2018-10-02T06:57:52.185Z,965.81
2018-10-02T06:58:50.261Z,965.79
2018-10-02T06:59:50.243Z,965.85
2018-10-02T07:00:50.232Z,965.89
2018-10-02T07:01:50.253Z,965.89
2018-10-02T07:02:50.254Z,965.92
2018-10-02T07:03:50.212Z,965.87
2018-10-02T07:04:50.871Z,965.89
2018-10-02T07:05:50.210Z,965.99
2018-10-02T07:06:50.279Z,965.96
2018-10-02T07:07:50.199Z,965.96
2018-10-02T07:08:50.211Z,965.89
2018-10-02T07:09:50.227Z,965.98
2018-10-02T07:10:57.925Z,965.93
2018-10-02T07:12:43.292Z,965.95
2018-10-02T07:13:43.636Z,965.98
2018-10-02T07:15:36.772Z,965.99
2018-10-02T07:16:36.754Z,965.93
2018-10-02T07:18:31.218Z,965.90
2018-10-02T07:19:29.963Z,965.89
2018-10-02T07:21:23.147Z,965.87
2018-10-02T07:22:22.966Z,965.85
2018-10-02T07:24:17.897Z,965.89
2018-10-02T07:25:17.096Z,965.96
2018-10-02T07:26:16.952Z,965.88
2018-10-02T07:27:16.848Z,965.93
2018-10-02T07:28:19.165Z,966.02
2018-10-02T07:29:17.318Z,965.98
2018-10-02T07:30:16.729Z,965.94
2018-10-02T07:31:16.664Z,965.97
2018-10-02T07:32:16.685Z,965.94
2018-10-02T07:33:16.663Z,965.91
2018-10-02T07:34:16.626Z,966.01
2018-10-02T07:35:16.682Z,965.92
2018-10-02T07:36:16.624Z,965.98
2018-10-02T07:37:18.629Z,965.95
2018-10-02T07:38:19.631Z,965.96
2018-10-02T07:39:16.633Z,965.96
2018-10-02T07:40:18.628Z,965.92
2018-10-02T07:41:16.625Z,965.93
2018-10-02T07:42:16.626Z,965.91
2018-10-02T07:43:16.605Z,965.91
2018-10-02T07:44:16.601Z,965.88
2018-10-02T07:45:16.580Z,965.88
2018-10-02T07:46:16.634Z,965.81
2018-10-02T07:47:16.607Z,965.83
2018-10-02T07:48:16.640Z,965.89
2018-10-02T07:49:16.621Z,965.85
2018-10-02T07:50:16.584Z,965.79
2018-10-02T07:51:19.072Z,965.80
2018-10-02T07:52:16.579Z,965.77
2018-10-02T07:53:16.539Z,965.75
2018-10-02T07:54:16.562Z,965.77
2018-10-02T07:55:16.542Z,965.73
2018-10-02T07:56:18.177Z,965.75
2018-10-02T07:57:16.579Z,965.80
2018-10-02T07:58:16.612Z,965.76
2018-10-02T07:59:16.512Z,965.83
2018-10-02T08:00:16.544Z,965.83
2018-10-02T08:01:16.509Z,965.82
2018-10-02T08:02:16.523Z,965.82
2018-10-02T08:03:16.552Z,965.84
2018-10-02T08:04:16.521Z,965.80
2018-10-02T08:05:16.636Z,965.83
2018-10-02T08:06:16.512Z,965.82
2018-10-02T08:07:16.498Z,965.86
2018-10-02T08:08:16.472Z,965.86
2018-10-02T08:09:16.481Z,965.82
2018-10-02T08:10:16.469Z,965.84
2018-10-02T08:11:16.463Z,965.78
2018-10-02T08:12:16.640Z,965.76
2018-10-02T08:13:16.472Z,965.77
2018-10-02T08:14:16.454Z,965.77
2018-10-02T08:15:16.453Z,965.68
2018-10-02T08:16:16.497Z,965.70
2018-10-02T08:17:16.447Z,965.67
2018-10-02T08:18:16.437Z,965.70
2018-10-02T08:19:16.453Z,965.63
2018-10-02T08:20:16.430Z,965.68
2018-10-02T08:21:16.434Z,965.52
2018-10-02T08:22:16.441Z,965.59
2018-10-02T08:23:16.451Z,965.58
2018-10-02T08:24:16.437Z,965.58
2018-10-02T08:25:16.411Z,965.52
2018-10-02T08:26:16.404Z,965.60
2018-10-02T08:27:16.584Z,965.57
2018-10-02T08:28:16.398Z,965.60
2018-10-02T08:29:16.434Z,965.73
2018-10-02T08:30:16.438Z,965.63
2018-10-02T08:31:16.392Z,965.65
2018-10-02T08:32:16.385Z,965.60
2018-10-02T08:33:16.385Z,965.63
2018-10-02T08:34:16.377Z,965.62
2018-10-02T08:35:16.389Z,965.60
2018-10-02T08:36:16.448Z,965.56
2018-10-02T08:37:16.411Z,965.54
2018-10-02T08:38:16.381Z,965.58
2018-10-02T08:39:16.362Z,965.55
2018-10-02T08:40:16.352Z,965.58
2018-10-02T08:41:16.346Z,965.54
2018-10-02T08:42:16.350Z,965.53
2018-10-02T08:43:16.382Z,965.59
2018-10-02T08:44:16.342Z,965.60
2018-10-02T08:45:16.337Z,965.58
2018-10-02T08:46:16.333Z,965.64
2018-10-02T08:47:16.324Z,965.68
2018-10-02T08:48:16.319Z,965.63
2018-10-02T08:49:16.316Z,965.58
2018-10-02T08:50:16.343Z,965.64
2018-10-02T08:51:16.313Z,965.60
2018-10-02T08:52:16.509Z,965.65
2018-10-02T08:53:16.299Z,965.64
2018-10-02T08:54:16.324Z,965.63
2018-10-02T08:55:16.290Z,965.63
2018-10-02T08:56:16.290Z,965.59
2018-10-02T08:57:16.285Z,965.62
2018-10-02T08:58:16.343Z,965.61
2018-10-02T08:59:16.274Z,965.59
2018-10-02T09:00:16.273Z,965.55
2018-10-02T09:01:16.270Z,965.51
2018-10-02T09:02:16.260Z,965.48
2018-10-02T09:03:16.339Z,965.46
2018-10-02T09:04:16.258Z,965.48
2018-10-02T09:05:16.284Z,965.44
2018-10-02T09:06:16.269Z,965.49
2018-10-02T09:16:35.100Z,965.23
2018-10-02T09:17:35.406Z,965.27
2018-10-02T09:19:40.928Z,965.20
2018-10-02T09:20:40.166Z,965.19
2018-10-02T09:21:40.013Z,965.15
2018-10-02T09:22:40.116Z,965.24
2018-10-02T09:23:48.145Z,965.24
2018-10-02T09:25:35.273Z,965.37
2018-10-02T09:26:33.478Z,965.36
2018-10-02T09:27:34.621Z,965.38
2018-10-02T09:28:35.042Z,965.33
2018-10-02T09:29:35.093Z,965.39
2018-10-02T09:30:35.168Z,965.44
2018-10-02T09:31:33.521Z,965.48
2018-10-02T09:32:33.126Z,965.42
2018-10-02T09:33:34.084Z,965.37
2018-10-02T09:34:33.452Z,965.37
2018-10-02T09:35:33.034Z,965.31
2018-10-02T09:36:33.069Z,965.36
2018-10-02T09:37:33.034Z,965.33
2018-10-02T09:38:33.021Z,965.35
2018-10-02T09:39:33.067Z,965.29
2018-10-02T09:40:33.010Z,965.26
2018-10-02T09:41:33.022Z,965.20
2018-10-02T09:42:33.079Z,965.20
2018-10-02T09:43:33.036Z,965.31
2018-10-02T09:44:33.352Z,965.23
2018-10-02T09:45:33.045Z,965.11
2018-10-02T09:46:33.033Z,965.22
2018-10-02T09:47:32.990Z,964.99
2018-10-02T09:48:33.021Z,965.16
2018-10-02T09:49:33.010Z,965.06
2018-10-02T09:50:34.699Z,965.14
2018-10-02T09:51:33.071Z,965.05
2018-10-02T09:52:33.276Z,964.99
2018-10-02T09:53:32.964Z,965.02
2018-10-02T09:54:33.678Z,964.98
2018-10-02T10:00:22.304Z,964.89
2018-10-02T10:03:39.173Z,964.91
2018-10-02T10:04:53.834Z,964.86
2018-10-02T10:05:40.436Z,964.74
2018-10-02T10:10:26.867Z,964.72
2018-10-02T10:11:27.484Z,964.72
2018-10-02T10:16:43.478Z,964.55
2018-10-02T10:17:19.759Z,964.64
2018-10-02T10:18:16.549Z,964.57
2018-10-02T10:19:22.239Z,964.57
2018-10-02T10:20:14.668Z,964.49
2018-10-02T10:22:56.854Z,964.44
2018-10-02T10:23:55.800Z,964.42
2018-10-02T10:24:52.195Z,964.44
2018-10-02T10:25:53.845Z,964.40
2018-10-02T10:26:52.472Z,964.40
2018-10-02T10:27:55.937Z,964.44
2018-10-02T10:28:52.461Z,964.38
2018-10-02T10:29:52.518Z,964.43
2018-10-02T10:30:53.048Z,964.42
2018-10-02T10:31:52.036Z,964.37
2018-10-02T10:32:52.012Z,964.36
2018-10-02T10:33:52.002Z,964.50
2018-10-02T10:34:52.060Z,964.45
2018-10-02T10:35:52.018Z,964.46
2018-10-02T10:36:53.077Z,964.43
2018-10-02T10:39:48.568Z,964.50
2018-10-02T10:40:50.283Z,964.48
2018-10-02T10:45:13.117Z,964.51
2018-10-02T10:46:13.233Z,964.51
2018-10-02T10:48:25.710Z,964.61
2018-10-02T10:49:26.690Z,964.55
2018-10-02T10:51:12.134Z,964.49
2018-10-02T10:52:12.096Z,964.46
2018-10-02T10:54:12.816Z,964.55
2018-10-02T10:56:52.223Z,964.57
2018-10-02T10:57:36.747Z,964.58
2018-10-02T11:00:10.384Z,964.56
2018-10-02T11:10:51.097Z,964.38
2018-10-02T11:18:27.129Z,964.15
2018-10-02T11:19:11.650Z,964.07
2018-10-02T11:21:05.024Z,964.09
2018-10-02T11:22:05.044Z,964.11
2018-10-02T11:46:50.586Z,963.59
2018-10-02T11:49:57.555Z,963.67
2018-10-02T11:57:58.065Z,963.46
2018-10-02T12:01:00.142Z,963.34
2018-10-02T12:01:45.639Z,963.19
2018-10-02T12:08:05.423Z,963.18
2018-10-02T12:09:05.376Z,963.14
2018-10-02T12:10:58.468Z,963.29
2018-10-02T12:13:38.756Z,963.13
2018-10-02T12:14:39.154Z,963.15
2018-10-02T12:16:33.449Z,963.16
2018-10-02T12:17:32.499Z,963.17
2018-10-02T12:19:27.689Z,963.17
2018-10-02T12:20:27.594Z,963.01
2018-10-02T12:21:27.011Z,963.16
2018-10-02T12:22:26.927Z,963.10
2018-10-02T12:23:26.720Z,963.10
2018-10-02T12:24:26.679Z,963.14
2018-10-02T12:25:26.778Z,963.10
2018-10-02T12:26:26.721Z,962.99
2018-10-02T12:27:26.568Z,963.03
2018-10-02T12:28:26.692Z,963.09
2018-10-02T12:29:29.698Z,963.06
2018-10-02T12:30:35.895Z,963.06
2018-10-02T12:32:19.801Z,963.01
2018-10-02T12:33:20.130Z,962.99
2018-10-02T12:35:13.291Z,963.03
2018-10-02T12:36:13.707Z,963.04
2018-10-02T12:38:08.086Z,963.01
2018-10-02T12:39:07.153Z,963.08
2018-10-02T12:40:59.775Z,962.94
2018-10-02T12:41:59.421Z,963.04
2018-10-02T12:48:30.941Z,963.13
2018-10-02T12:49:28.000Z,963.01
2018-10-02T12:50:36.202Z,963.08
2018-10-02T12:52:22.432Z,963.07
2018-10-02T12:53:22.300Z,963.07
2018-10-02T12:55:31.740Z,962.99
2018-10-02T12:56:32.209Z,963.07
2018-10-02T12:58:38.255Z,962.97
2018-10-02T13:02:26.068Z,963.16
2018-10-02T13:03:33.949Z,963.01
2018-10-02T13:05:18.522Z,962.99
2018-10-02T13:06:19.326Z,963.02
2018-10-02T13:08:14.042Z,962.91
2018-10-02T13:09:13.588Z,962.90
2018-10-02T13:11:06.018Z,963.01
2018-10-02T13:12:06.022Z,963.01
2018-10-02T13:14:01.968Z,962.87
2018-10-02T13:15:11.910Z,962.92
2018-10-02T13:15:59.894Z,962.95
2018-10-02T13:16:59.889Z,962.76
2018-10-02T13:18:00.685Z,962.78
2018-10-02T13:18:59.902Z,962.74
2018-10-02T13:19:59.945Z,962.75
2018-10-02T13:22:22.621Z,962.95
2018-10-02T13:23:24.112Z,962.80
2018-10-02T13:25:16.612Z,962.80
2018-10-02T13:26:15.552Z,962.90
2018-10-02T13:28:10.781Z,962.85
2018-10-02T13:29:09.098Z,962.84
2018-10-02T13:31:01.895Z,962.87
2018-10-02T13:32:02.208Z,962.94
2018-10-02T13:33:54.965Z,962.83
2018-10-02T13:34:54.861Z,962.79
2018-10-02T13:36:48.044Z,962.71
2018-10-02T13:37:48.255Z,962.62
2018-10-02T13:39:40.666Z,962.50
2018-10-02T13:40:40.677Z,962.53
2018-10-02T13:42:34.539Z,962.42
2018-10-02T13:43:34.141Z,962.50
2018-10-02T13:45:27.657Z,962.31
2018-10-02T13:46:27.854Z,962.41
2018-10-02T13:48:22.254Z,962.40
2018-10-02T13:49:22.210Z,962.29
2018-10-02T13:51:15.145Z,962.36
2018-10-02T13:52:15.312Z,962.35
2018-10-02T13:54:07.977Z,962.40
2018-10-02T13:55:07.939Z,962.36
2018-10-02T13:57:00.818Z,962.26
2018-10-02T13:58:00.885Z,962.39
2018-10-02T13:59:54.041Z,962.40
2018-10-02T14:00:53.684Z,962.49
2018-10-02T14:01:53.638Z,962.40
2018-10-02T14:02:53.685Z,962.45
2018-10-02T14:03:53.623Z,962.41
2018-10-02T14:04:53.611Z,962.41
2018-10-02T14:05:53.695Z,962.45
2018-10-02T14:07:26.304Z,962.47
2018-10-02T14:08:27.859Z,962.54
2018-10-02T14:08:53.776Z,962.32
2018-10-02T14:09:55.324Z,962.48
2018-10-02T14:10:53.625Z,962.46
2018-10-02T14:11:53.585Z,962.45
2018-10-02T14:12:53.587Z,962.49
2018-10-02T14:13:53.612Z,962.40
2018-10-02T14:14:53.655Z,962.37
2018-10-02T14:15:53.577Z,962.44
2018-10-02T14:16:53.568Z,962.36
2018-10-02T14:17:53.571Z,962.43
2018-10-02T14:18:53.567Z,962.34
2018-10-02T14:19:53.591Z,962.28
2018-10-02T14:20:53.555Z,962.33
2018-10-02T14:21:55.200Z,962.26
2018-10-02T14:22:54.633Z,962.14
2018-10-02T14:23:53.747Z,962.34
2018-10-02T14:24:53.547Z,962.37
2018-10-02T14:25:53.597Z,962.24
2018-10-02T14:26:53.591Z,962.28
2018-10-02T14:27:53.580Z,962.28
2018-10-02T14:28:53.537Z,962.24
2018-10-02T14:29:56.256Z,962.28
2018-10-02T14:32:50.292Z,962.31
2018-10-02T14:33:35.861Z,962.28
2018-10-02T14:35:29.628Z,962.25
2018-10-02T14:36:29.501Z,962.14
2018-10-02T14:38:23.525Z,962.14
2018-10-02T14:39:23.621Z,962.12
2018-10-02T14:41:16.372Z,962.06
2018-10-02T14:42:16.270Z,961.91
2018-10-02T14:44:09.231Z,961.79
2018-10-02T14:45:09.238Z,961.84
2018-10-02T14:47:02.088Z,961.96
2018-10-02T14:48:01.981Z,962.02
2018-10-02T14:49:54.891Z,961.87
2018-10-02T14:50:55.083Z,961.96
2018-10-02T14:52:47.832Z,961.77
2018-10-02T14:53:47.877Z,961.85
2018-10-02T14:55:40.674Z,961.79
2018-10-02T14:56:40.636Z,961.78
2018-10-02T14:58:34.055Z,961.90
2018-10-02T14:59:34.010Z,961.80
2018-10-02T15:01:26.858Z,961.52
2018-10-02T15:02:26.863Z,961.68